sensor_id;sensor_type;location;lat;lon;timestamp;P1;durP1;ratioP1;P2;durP2;ratioP2
53714;SDS011;39608;55.630;37.864;2022-09-09T00:05:02;6.00;;;1.10;;
53714;SDS011;39608;55.630;37.864;2022-09-09T00:10:17;4.53;;;1.07;;
53714;SDS011;39608;55.630;37.864;2022-09-09T00:15:29;9.15;;;2.15;;
53714;SDS011;39608;55.630;37.864;2022-09-09T00:20:39;0.80;;;0.80;;
53714;SDS011;39608;55.630;37.864;2022-09-09T00:25:47;7.05;;;1.33;;
53714;SDS011;39608;55.630;37.864;2022-09-09T00:30:55;12.23;;;1.00;;
53714;SDS011;39608;55.630;37.864;2022-09-09T00:36:02;3.63;;;1.10;;
53714;SDS011;39608;55.630;37.864;2022-09-09T00:41:07;1.55;;;0.95;;
53714;SDS011;39608;55.630;37.864;2022-09-09T00:46:27;1.73;;;0.93;;
53714;SDS011;39608;55.630;37.864;2022-09-09T00:51:46;0.80;;;0.80;;
53714;SDS011;39608;55.630;37.864;2022-09-09T00:57:04;4.17;;;0.97;;
53714;SDS011;39608;55.630;37.864;2022-09-09T01:02:17;1.55;;;1.10;;
53714;SDS011;39608;55.630;37.864;2022-09-09T01:07:29;1.00;;;0.80;;
53714;SDS011;39608;55.630;37.864;2022-09-09T01:12:34;1.65;;;1.00;;
53714;SDS011;39608;55.630;37.864;2022-09-09T01:17:52;2.33;;;0.90;;
53714;SDS011;39608;55.630;37.864;2022-09-09T01:23:04;2.55;;;1.10;;
53714;SDS011;39608;55.630;37.864;2022-09-09T01:28:22;2.53;;;0.60;;
53714;SDS011;39608;55.630;37.864;2022-09-09T01:38:32;0.60;;;0.60;;
53714;SDS011;39608;55.630;37.864;2022-09-09T01:43:37;2.20;;;0.95;;
53714;SDS011;39608;55.630;37.864;2022-09-09T01:48:42;4.55;;;0.95;;
53714;SDS011;39608;55.630;37.864;2022-09-09T01:53:45;2.00;;;1.10;;
53714;SDS011;39608;55.630;37.864;2022-09-09T01:58:54;2.40;;;0.90;;
53714;SDS011;39608;55.630;37.864;2022-09-09T02:04:10;6.03;;;1.02;;
53714;SDS011;39608;55.630;37.864;2022-09-09T02:09:20;1.20;;;1.10;;
53714;SDS011;39608;55.630;37.864;2022-09-09T02:14:27;5.85;;;1.08;;
53714;SDS011;39608;55.630;37.864;2022-09-09T02:19:36;5.60;;;1.00;;
53714;SDS011;39608;55.630;37.864;2022-09-09T02:24:44;2.88;;;1.17;;
53714;SDS011;39608;55.630;37.864;2022-09-09T02:29:48;3.58;;;1.23;;
53714;SDS011;39608;55.630;37.864;2022-09-09T02:34:53;2.30;;;1.10;;
53714;SDS011;39608;55.630;37.864;2022-09-09T02:39:57;5.22;;;1.13;;
53714;SDS011;39608;55.630;37.864;2022-09-09T02:45:01;4.32;;;1.27;;
53714;SDS011;39608;55.630;37.864;2022-09-09T02:50:06;4.97;;;1.40;;
53714;SDS011;39608;55.630;37.864;2022-09-09T02:55:16;2.50;;;1.42;;
53714;SDS011;39608;55.630;37.864;2022-09-09T03:00:25;2.83;;;1.50;;
53714;SDS011;39608;55.630;37.864;2022-09-09T03:05:28;1.83;;;1.20;;
53714;SDS011;39608;55.630;37.864;2022-09-09T03:10:30;5.32;;;1.52;;
53714;SDS011;39608;55.630;37.864;2022-09-09T03:15:34;2.58;;;1.60;;
53714;SDS011;39608;55.630;37.864;2022-09-09T03:20:37;1.60;;;1.50;;
53714;SDS011;39608;55.630;37.864;2022-09-09T03:25:39;3.38;;;1.60;;
53714;SDS011;39608;55.630;37.864;2022-09-09T03:30:42;1.67;;;1.23;;
53714;SDS011;39608;55.630;37.864;2022-09-09T03:35:59;5.70;;;1.30;;
53714;SDS011;39608;55.630;37.864;2022-09-09T03:41:01;2.75;;;1.33;;
53714;SDS011;39608;55.630;37.864;2022-09-09T03:46:05;2.35;;;1.60;;
53714;SDS011;39608;55.630;37.864;2022-09-09T03:51:07;1.83;;;1.25;;
53714;SDS011;39608;55.630;37.864;2022-09-09T03:56:09;3.03;;;1.40;;
53714;SDS011;39608;55.630;37.864;2022-09-09T04:01:13;2.00;;;1.63;;
53714;SDS011;39608;55.630;37.864;2022-09-09T04:06:18;2.53;;;1.50;;
53714;SDS011;39608;55.630;37.864;2022-09-09T04:11:21;2.80;;;1.55;;
53714;SDS011;39608;55.630;37.864;2022-09-09T04:16:25;1.75;;;1.50;;
53714;SDS011;39608;55.630;37.864;2022-09-09T04:21:27;3.40;;;1.40;;
53714;SDS011;39608;55.630;37.864;2022-09-09T04:26:29;3.22;;;1.40;;
53714;SDS011;39608;55.630;37.864;2022-09-09T04:31:33;4.40;;;1.42;;
53714;SDS011;39608;55.630;37.864;2022-09-09T04:36:35;4.05;;;1.67;;
53714;SDS011;39608;55.630;37.864;2022-09-09T04:41:37;3.80;;;1.67;;
53714;SDS011;39608;55.630;37.864;2022-09-09T04:46:42;7.03;;;1.67;;
53714;SDS011;39608;55.630;37.864;2022-09-09T04:51:50;4.05;;;1.90;;
53714;SDS011;39608;55.630;37.864;2022-09-09T04:57:03;2.60;;;1.60;;
53714;SDS011;39608;55.630;37.864;2022-09-09T05:02:06;5.55;;;1.58;;
53714;SDS011;39608;55.630;37.864;2022-09-09T05:07:08;1.77;;;1.40;;
53714;SDS011;39608;55.630;37.864;2022-09-09T05:12:11;3.78;;;1.30;;
53714;SDS011;39608;55.630;37.864;2022-09-09T05:17:15;3.17;;;1.40;;
53714;SDS011;39608;55.630;37.864;2022-09-09T05:22:18;3.38;;;1.40;;
53714;SDS011;39608;55.630;37.864;2022-09-09T05:27:23;1.50;;;1.27;;
53714;SDS011;39608;55.630;37.864;2022-09-09T05:32:26;4.53;;;1.50;;
53714;SDS011;39608;55.630;37.864;2022-09-09T05:37:33;2.50;;;1.33;;
53714;SDS011;39608;55.630;37.864;2022-09-09T05:42:36;2.90;;;1.45;;
53714;SDS011;39608;55.630;37.864;2022-09-09T05:47:40;0.85;;;0.85;;
53714;SDS011;39608;55.630;37.864;2022-09-09T05:52:42;2.08;;;1.33;;
53714;SDS011;39608;55.630;37.864;2022-09-09T05:57:47;1.58;;;1.30;;
53714;SDS011;39608;55.630;37.864;2022-09-09T06:02:53;2.88;;;1.30;;
53714;SDS011;39608;55.630;37.864;2022-09-09T06:07:55;3.50;;;0.95;;
53714;SDS011;39608;55.630;37.864;2022-09-09T06:12:57;7.00;;;1.25;;
53714;SDS011;39608;55.630;37.864;2022-09-09T06:18:01;1.25;;;0.82;;
53714;SDS011;39608;55.630;37.864;2022-09-09T06:23:03;0.63;;;0.55;;
53714;SDS011;39608;55.630;37.864;2022-09-09T06:28:05;2.50;;;0.90;;
53714;SDS011;39608;55.630;37.864;2022-09-09T06:33:08;2.13;;;0.82;;
53714;SDS011;39608;55.630;37.864;2022-09-09T06:38:10;1.10;;;0.70;;
53714;SDS011;39608;55.630;37.864;2022-09-09T06:43:12;2.67;;;0.60;;
53714;SDS011;39608;55.630;37.864;2022-09-09T06:48:16;1.88;;;0.68;;
53714;SDS011;39608;55.630;37.864;2022-09-09T06:53:19;3.22;;;0.52;;
53714;SDS011;39608;55.630;37.864;2022-09-09T06:58:21;1.08;;;0.60;;
53714;SDS011;39608;55.630;37.864;2022-09-09T07:03:25;7.53;;;0.60;;
53714;SDS011;39608;55.630;37.864;2022-09-09T07:08:27;2.55;;;0.70;;
53714;SDS011;39608;55.630;37.864;2022-09-09T07:13:31;2.13;;;1.45;;
53714;SDS011;39608;55.630;37.864;2022-09-09T07:18:34;1.33;;;0.60;;
53714;SDS011;39608;55.630;37.864;2022-09-09T07:23:37;0.50;;;0.50;;
53714;SDS011;39608;55.630;37.864;2022-09-09T07:28:40;2.15;;;0.40;;
53714;SDS011;39608;55.630;37.864;2022-09-09T07:33:44;1.35;;;0.63;;
53714;SDS011;39608;55.630;37.864;2022-09-09T07:38:48;0.68;;;0.52;;
53714;SDS011;39608;55.630;37.864;2022-09-09T07:43:52;1.05;;;0.80;;
53714;SDS011;39608;55.630;37.864;2022-09-09T07:48:57;1.10;;;0.88;;
53714;SDS011;39608;55.630;37.864;2022-09-09T07:54:00;0.57;;;0.57;;
53714;SDS011;39608;55.630;37.864;2022-09-09T07:59:04;3.10;;;0.70;;
53714;SDS011;39608;55.630;37.864;2022-09-09T08:04:08;3.13;;;0.50;;
53714;SDS011;39608;55.630;37.864;2022-09-09T08:09:15;0.85;;;0.50;;
53714;SDS011;39608;55.630;37.864;2022-09-09T08:14:18;0.50;;;0.50;;
53714;SDS011;39608;55.630;37.864;2022-09-09T08:19:21;1.52;;;0.40;;
53714;SDS011;39608;55.630;37.864;2022-09-09T08:24:30;0.57;;;0.50;;
53714;SDS011;39608;55.630;37.864;2022-09-09T08:29:32;0.90;;;0.47;;
53714;SDS011;39608;55.630;37.864;2022-09-09T08:34:36;0.30;;;0.25;;
53714;SDS011;39608;55.630;37.864;2022-09-09T08:39:38;0.60;;;0.30;;
53714;SDS011;39608;55.630;37.864;2022-09-09T08:44:44;0.40;;;0.40;;
53714;SDS011;39608;55.630;37.864;2022-09-09T08:50:04;2.22;;;0.50;;
53714;SDS011;39608;55.630;37.864;2022-09-09T08:55:24;1.58;;;0.43;;
53714;SDS011;39608;55.630;37.864;2022-09-09T09:00:32;0.50;;;0.50;;
53714;SDS011;39608;55.630;37.864;2022-09-09T09:05:46;0.90;;;0.60;;
53714;SDS011;39608;55.630;37.864;2022-09-09T09:10:53;1.00;;;0.50;;
53714;SDS011;39608;55.630;37.864;2022-09-09T09:16:00;0.50;;;0.50;;
53714;SDS011;39608;55.630;37.864;2022-09-09T09:21:10;3.63;;;2.35;;
53714;SDS011;39608;55.630;37.864;2022-09-09T09:26:16;0.75;;;0.70;;
53714;SDS011;39608;55.630;37.864;2022-09-09T09:31:19;0.98;;;0.77;;
53714;SDS011;39608;55.630;37.864;2022-09-09T09:36:24;0.55;;;0.52;;
53714;SDS011;39608;55.630;37.864;2022-09-09T09:41:35;0.52;;;0.50;;
53714;SDS011;39608;55.630;37.864;2022-09-09T09:46:40;1.08;;;1.00;;
53714;SDS011;39608;55.630;37.864;2022-09-09T09:51:43;1.20;;;0.95;;
53714;SDS011;39608;55.630;37.864;2022-09-09T09:56:46;0.93;;;0.70;;
53714;SDS011;39608;55.630;37.864;2022-09-09T10:01:48;1.00;;;0.73;;
53714;SDS011;39608;55.630;37.864;2022-09-09T10:06:52;2.97;;;0.50;;
53714;SDS011;39608;55.630;37.864;2022-09-09T10:11:55;0.80;;;0.52;;
53714;SDS011;39608;55.630;37.864;2022-09-09T10:17:08;0.47;;;0.47;;
53714;SDS011;39608;55.630;37.864;2022-09-09T10:22:27;2.35;;;0.50;;
53714;SDS011;39608;55.630;37.864;2022-09-09T10:27:37;3.28;;;0.77;;
53714;SDS011;39608;55.630;37.864;2022-09-09T10:32:54;0.40;;;0.40;;
53714;SDS011;39608;55.630;37.864;2022-09-09T10:38:17;2.47;;;0.50;;
53714;SDS011;39608;55.630;37.864;2022-09-09T10:43:26;1.88;;;0.73;;
53714;SDS011;39608;55.630;37.864;2022-09-09T10:48:42;0.85;;;0.50;;
53714;SDS011;39608;55.630;37.864;2022-09-09T10:54:06;1.08;;;0.50;;
53714;SDS011;39608;55.630;37.864;2022-09-09T10:59:20;2.05;;;0.40;;
53714;SDS011;39608;55.630;37.864;2022-09-09T11:04:33;0.63;;;0.55;;
53714;SDS011;39608;55.630;37.864;2022-09-09T11:09:47;3.55;;;0.93;;
53714;SDS011;39608;55.630;37.864;2022-09-09T11:14:57;2.58;;;0.80;;
53714;SDS011;39608;55.630;37.864;2022-09-09T11:20:06;0.75;;;0.50;;
53714;SDS011;39608;55.630;37.864;2022-09-09T11:25:16;1.42;;;0.40;;
53714;SDS011;39608;55.630;37.864;2022-09-09T11:30:22;0.88;;;0.43;;
53714;SDS011;39608;55.630;37.864;2022-09-09T11:35:30;0.63;;;0.40;;
53714;SDS011;39608;55.630;37.864;2022-09-09T11:40:41;1.08;;;0.60;;
53714;SDS011;39608;55.630;37.864;2022-09-09T11:45:49;1.35;;;0.43;;
53714;SDS011;39608;55.630;37.864;2022-09-09T11:51:00;3.38;;;0.73;;
53714;SDS011;39608;55.630;37.864;2022-09-09T11:56:08;0.40;;;0.40;;
53714;SDS011;39608;55.630;37.864;2022-09-09T12:01:14;2.28;;;0.35;;
53714;SDS011;39608;55.630;37.864;2022-09-09T12:06:43;0.70;;;0.50;;
53714;SDS011;39608;55.630;37.864;2022-09-09T12:11:48;2.13;;;0.50;;
53714;SDS011;39608;55.630;37.864;2022-09-09T12:16:51;2.28;;;0.45;;
53714;SDS011;39608;55.630;37.864;2022-09-09T12:21:54;0.65;;;0.40;;
53714;SDS011;39608;55.630;37.864;2022-09-09T12:27:11;0.80;;;0.55;;
53714;SDS011;39608;55.630;37.864;2022-09-09T12:32:23;0.43;;;0.43;;
53714;SDS011;39608;55.630;37.864;2022-09-09T12:37:28;0.55;;;0.50;;
53714;SDS011;39608;55.630;37.864;2022-09-09T12:42:47;0.75;;;0.50;;
53714;SDS011;39608;55.630;37.864;2022-09-09T12:47:52;0.88;;;0.60;;
53714;SDS011;39608;55.630;37.864;2022-09-09T12:52:58;0.70;;;0.70;;
53714;SDS011;39608;55.630;37.864;2022-09-09T12:58:06;8.02;;;1.52;;
53714;SDS011;39608;55.630;37.864;2022-09-09T13:03:15;6.35;;;1.52;;
53714;SDS011;39608;55.630;37.864;2022-09-09T13:08:20;1.85;;;0.70;;
53714;SDS011;39608;55.630;37.864;2022-09-09T13:13:25;1.90;;;1.48;;
53714;SDS011;39608;55.630;37.864;2022-09-09T13:18:30;0.88;;;0.73;;
53714;SDS011;39608;55.630;37.864;2022-09-09T13:23:36;3.67;;;0.70;;
53714;SDS011;39608;55.630;37.864;2022-09-09T13:28:40;1.42;;;0.65;;
53714;SDS011;39608;55.630;37.864;2022-09-09T13:33:45;1.80;;;0.97;;
53714;SDS011;39608;55.630;37.864;2022-09-09T13:38:53;1.42;;;0.63;;
53714;SDS011;39608;55.630;37.864;2022-09-09T13:44:05;6.88;;;0.85;;
53714;SDS011;39608;55.630;37.864;2022-09-09T13:49:19;1.30;;;0.80;;
53714;SDS011;39608;55.630;37.864;2022-09-09T13:54:23;0.95;;;0.80;;
53714;SDS011;39608;55.630;37.864;2022-09-09T13:59:26;0.52;;;0.52;;
53714;SDS011;39608;55.630;37.864;2022-09-09T14:04:28;0.77;;;0.75;;
53714;SDS011;39608;55.630;37.864;2022-09-09T14:09:31;1.38;;;0.80;;
53714;SDS011;39608;55.630;37.864;2022-09-09T14:14:34;4.03;;;0.85;;
53714;SDS011;39608;55.630;37.864;2022-09-09T14:19:36;1.15;;;0.63;;
53714;SDS011;39608;55.630;37.864;2022-09-09T14:24:38;1.20;;;1.15;;
53714;SDS011;39608;55.630;37.864;2022-09-09T14:29:42;2.58;;;0.90;;
53714;SDS011;39608;55.630;37.864;2022-09-09T14:34:45;7.47;;;1.20;;
53714;SDS011;39608;55.630;37.864;2022-09-09T14:39:49;10.32;;;1.15;;
53714;SDS011;39608;55.630;37.864;2022-09-09T14:44:53;4.43;;;0.90;;
53714;SDS011;39608;55.630;37.864;2022-09-09T14:49:55;3.83;;;0.70;;
53714;SDS011;39608;55.630;37.864;2022-09-09T14:55:01;1.30;;;0.65;;
53714;SDS011;39608;55.630;37.864;2022-09-09T15:00:06;0.98;;;0.60;;
53714;SDS011;39608;55.630;37.864;2022-09-09T15:05:09;1.35;;;0.88;;
53714;SDS011;39608;55.630;37.864;2022-09-09T15:10:11;1.55;;;0.70;;
53714;SDS011;39608;55.630;37.864;2022-09-09T15:15:15;1.92;;;0.90;;
53714;SDS011;39608;55.630;37.864;2022-09-09T15:20:17;4.93;;;1.00;;
53714;SDS011;39608;55.630;37.864;2022-09-09T15:25:19;1.85;;;0.90;;
53714;SDS011;39608;55.630;37.864;2022-09-09T15:30:23;0.68;;;0.65;;
53714;SDS011;39608;55.630;37.864;2022-09-09T15:35:26;3.72;;;1.20;;
53714;SDS011;39608;55.630;37.864;2022-09-09T15:40:28;1.30;;;0.90;;
53714;SDS011;39608;55.630;37.864;2022-09-09T15:45:33;5.65;;;1.00;;
53714;SDS011;39608;55.630;37.864;2022-09-09T15:50:35;1.10;;;0.80;;
53714;SDS011;39608;55.630;37.864;2022-09-09T15:55:38;4.13;;;1.30;;
53714;SDS011;39608;55.630;37.864;2022-09-09T16:00:41;3.20;;;1.00;;
53714;SDS011;39608;55.630;37.864;2022-09-09T16:05:43;2.25;;;1.67;;
53714;SDS011;39608;55.630;37.864;2022-09-09T16:10:45;4.15;;;1.35;;
53714;SDS011;39608;55.630;37.864;2022-09-09T16:15:54;8.15;;;1.55;;
53714;SDS011;39608;55.630;37.864;2022-09-09T16:20:56;3.65;;;1.50;;
53714;SDS011;39608;55.630;37.864;2022-09-09T16:25:59;1.55;;;1.17;;
53714;SDS011;39608;55.630;37.864;2022-09-09T16:31:05;4.32;;;1.83;;
53714;SDS011;39608;55.630;37.864;2022-09-09T16:36:07;2.30;;;1.35;;
53714;SDS011;39608;55.630;37.864;2022-09-09T16:41:11;8.65;;;2.05;;
53714;SDS011;39608;55.630;37.864;2022-09-09T16:46:16;2.42;;;1.73;;
53714;SDS011;39608;55.630;37.864;2022-09-09T16:51:20;6.32;;;1.67;;
53714;SDS011;39608;55.630;37.864;2022-09-09T16:56:25;7.50;;;2.88;;
53714;SDS011;39608;55.630;37.864;2022-09-09T17:01:30;15.18;;;4.45;;
53714;SDS011;39608;55.630;37.864;2022-09-09T17:06:34;7.07;;;3.70;;
53714;SDS011;39608;55.630;37.864;2022-09-09T17:11:38;14.10;;;5.85;;
53714;SDS011;39608;55.630;37.864;2022-09-09T17:16:43;9.48;;;3.28;;
53714;SDS011;39608;55.630;37.864;2022-09-09T17:21:45;9.10;;;3.70;;
53714;SDS011;39608;55.630;37.864;2022-09-09T17:26:48;12.50;;;3.15;;
53714;SDS011;39608;55.630;37.864;2022-09-09T17:31:53;7.68;;;2.47;;
53714;SDS011;39608;55.630;37.864;2022-09-09T17:36:55;4.28;;;2.35;;
53714;SDS011;39608;55.630;37.864;2022-09-09T17:41:59;12.75;;;2.60;;
53714;SDS011;39608;55.630;37.864;2022-09-09T17:47:02;5.18;;;1.95;;
53714;SDS011;39608;55.630;37.864;2022-09-09T17:52:06;7.57;;;2.05;;
53714;SDS011;39608;55.630;37.864;2022-09-09T17:57:08;7.40;;;2.95;;
53714;SDS011;39608;55.630;37.864;2022-09-09T18:02:13;10.27;;;2.10;;
53714;SDS011;39608;55.630;37.864;2022-09-09T18:07:15;10.40;;;1.85;;
53714;SDS011;39608;55.630;37.864;2022-09-09T18:12:18;4.53;;;2.28;;
53714;SDS011;39608;55.630;37.864;2022-09-09T18:17:21;6.28;;;2.42;;
53714;SDS011;39608;55.630;37.864;2022-09-09T18:22:24;8.30;;;2.75;;
53714;SDS011;39608;55.630;37.864;2022-09-09T18:27:27;6.55;;;2.30;;
53714;SDS011;39608;55.630;37.864;2022-09-09T18:32:30;7.10;;;2.70;;
53714;SDS011;39608;55.630;37.864;2022-09-09T18:37:34;9.77;;;2.42;;
53714;SDS011;39608;55.630;37.864;2022-09-09T18:42:39;7.88;;;2.78;;
53714;SDS011;39608;55.630;37.864;2022-09-09T18:47:42;7.50;;;2.15;;
53714;SDS011;39608;55.630;37.864;2022-09-09T18:52:44;7.00;;;2.63;;
53714;SDS011;39608;55.630;37.864;2022-09-09T18:57:46;8.57;;;3.00;;
53714;SDS011;39608;55.630;37.864;2022-09-09T19:02:51;3.78;;;2.25;;
53714;SDS011;39608;55.630;37.864;2022-09-09T19:07:53;7.63;;;2.88;;
53714;SDS011;39608;55.630;37.864;2022-09-09T19:12:55;5.53;;;2.55;;
53714;SDS011;39608;55.630;37.864;2022-09-09T19:17:59;9.98;;;2.80;;
53714;SDS011;39608;55.630;37.864;2022-09-09T19:23:01;7.32;;;2.90;;
53714;SDS011;39608;55.630;37.864;2022-09-09T19:28:03;10.18;;;3.17;;
53714;SDS011;39608;55.630;37.864;2022-09-09T19:33:08;13.90;;;4.65;;
53714;SDS011;39608;55.630;37.864;2022-09-09T19:38:10;17.50;;;4.43;;
53714;SDS011;39608;55.630;37.864;2022-09-09T19:43:12;13.15;;;4.65;;
53714;SDS011;39608;55.630;37.864;2022-09-09T19:48:18;10.15;;;4.95;;
53714;SDS011;39608;55.630;37.864;2022-09-09T19:53:20;14.23;;;5.20;;
53714;SDS011;39608;55.630;37.864;2022-09-09T19:58:22;27.95;;;5.10;;
53714;SDS011;39608;55.630;37.864;2022-09-09T20:03:26;14.52;;;4.88;;
53714;SDS011;39608;55.630;37.864;2022-09-09T20:08:28;14.00;;;4.82;;
53714;SDS011;39608;55.630;37.864;2022-09-09T20:13:31;11.48;;;5.47;;
53714;SDS011;39608;55.630;37.864;2022-09-09T20:18:36;14.10;;;5.30;;
53714;SDS011;39608;55.630;37.864;2022-09-09T20:23:40;15.70;;;5.50;;
53714;SDS011;39608;55.630;37.864;2022-09-09T20:28:43;19.02;;;5.88;;
53714;SDS011;39608;55.630;37.864;2022-09-09T20:33:51;13.85;;;5.90;;
53714;SDS011;39608;55.630;37.864;2022-09-09T20:38:57;13.27;;;5.75;;
53714;SDS011;39608;55.630;37.864;2022-09-09T20:44:01;17.60;;;5.70;;
53714;SDS011;39608;55.630;37.864;2022-09-09T20:49:07;12.68;;;6.10;;
53714;SDS011;39608;55.630;37.864;2022-09-09T20:54:12;15.93;;;7.78;;
53714;SDS011;39608;55.630;37.864;2022-09-09T20:59:16;14.70;;;6.70;;
53714;SDS011;39608;55.630;37.864;2022-09-09T21:04:21;13.98;;;6.50;;
53714;SDS011;39608;55.630;37.864;2022-09-09T21:09:23;20.65;;;6.75;;
53714;SDS011;39608;55.630;37.864;2022-09-09T21:14:25;14.48;;;6.93;;
53714;SDS011;39608;55.630;37.864;2022-09-09T21:19:29;23.33;;;7.53;;
53714;SDS011;39608;55.630;37.864;2022-09-09T21:24:31;14.48;;;7.20;;
53714;SDS011;39608;55.630;37.864;2022-09-09T21:29:33;15.75;;;6.70;;
53714;SDS011;39608;55.630;37.864;2022-09-09T21:34:37;19.88;;;6.78;;
53714;SDS011;39608;55.630;37.864;2022-09-09T21:39:39;16.63;;;6.32;;
53714;SDS011;39608;55.630;37.864;2022-09-09T21:44:42;14.95;;;6.35;;
53714;SDS011;39608;55.630;37.864;2022-09-09T21:49:45;20.88;;;7.65;;
53714;SDS011;39608;55.630;37.864;2022-09-09T21:54:47;15.63;;;7.30;;
53714;SDS011;39608;55.630;37.864;2022-09-09T21:59:50;20.50;;;8.13;;
53714;SDS011;39608;55.630;37.864;2022-09-09T22:04:53;22.55;;;8.25;;
53714;SDS011;39608;55.630;37.864;2022-09-09T22:09:56;19.42;;;7.63;;
53714;SDS011;39608;55.630;37.864;2022-09-09T22:14:58;14.85;;;6.82;;
53714;SDS011;39608;55.630;37.864;2022-09-09T22:20:01;17.92;;;7.53;;
53714;SDS011;39608;55.630;37.864;2022-09-09T22:25:04;17.80;;;8.07;;
53714;SDS011;39608;55.630;37.864;2022-09-09T22:30:08;17.75;;;8.27;;
53714;SDS011;39608;55.630;37.864;2022-09-09T22:35:12;21.95;;;8.63;;
53714;SDS011;39608;55.630;37.864;2022-09-09T22:40:15;22.35;;;8.05;;
53714;SDS011;39608;55.630;37.864;2022-09-09T22:45:17;19.48;;;8.20;;
53714;SDS011;39608;55.630;37.864;2022-09-09T22:50:21;22.25;;;8.50;;
53714;SDS011;39608;55.630;37.864;2022-09-09T22:55:23;30.42;;;9.00;;
53714;SDS011;39608;55.630;37.864;2022-09-09T23:00:27;21.98;;;8.27;;
53714;SDS011;39608;55.630;37.864;2022-09-09T23:05:30;23.33;;;8.25;;
53714;SDS011;39608;55.630;37.864;2022-09-09T23:10:34;33.15;;;8.68;;
53714;SDS011;39608;55.630;37.864;2022-09-09T23:15:36;24.15;;;8.73;;
53714;SDS011;39608;55.630;37.864;2022-09-09T23:20:40;20.92;;;8.32;;
53714;SDS011;39608;55.630;37.864;2022-09-09T23:25:46;16.45;;;8.35;;
53714;SDS011;39608;55.630;37.864;2022-09-09T23:30:48;21.88;;;8.63;;
53714;SDS011;39608;55.630;37.864;2022-09-09T23:35:58;20.10;;;8.90;;
53714;SDS011;39608;55.630;37.864;2022-09-09T23:41:00;19.75;;;9.07;;
53714;SDS011;39608;55.630;37.864;2022-09-09T23:46:03;20.88;;;9.55;;
53714;SDS011;39608;55.630;37.864;2022-09-09T23:51:07;21.75;;;9.55;;
53714;SDS011;39608;55.630;37.864;2022-09-09T23:56:11;16.35;;;7.78;;
